Main page
METAR-TAF:

METAR-TAF

Airports :

Lamoni Municipal Airport

Lamoni, Iowa, United States

latitude: 40-37-50N, longitude: 093-54-03W, elevation: 1128 ft

Current weather observation

The report was made 14 minutes ago, at 15:53 UTC
Wind 9 mph from the North
Temperature 70°F
Humidity 88%
Pressure 29.89 in. Hg
Visibility: 10 miles
Few clouds at a height of 1300 ft
Broken clouds at a height of 1800 ft
Overcast at a height of 2800 ft

METAR: KLWD 281553Z AUTO 35008KT 10SM FEW013 BKN018 OVC028 21/19 A2989 RMK AO2 SLP117 T02060189

Time: 11:07 (16:07 UTC)


TAF: missing

Weather observations and forecasts of more than 4000 airports (METAR and TAF reports).

The available stations are represented by yellow and red dots on the map.

Hover mouse over dot to see the name of the station.

Then click to see weather observations and forecasts.

To change the map : click on the green buttons with a black cross to zoom in, on the green button with a dash to zoom out, or on the green arrows for adjacent maps.


METAR-TAF: